createdAt,value
2018-11-10T00:01:59.952Z,100208.25
2018-11-10T00:04:31.558Z,100207.77
2018-11-10T00:06:59.313Z,100211.29
2018-11-10T00:09:27.040Z,100211.57
2018-11-10T00:11:54.857Z,100206.58
2018-11-10T00:14:22.578Z,100212.72
2018-11-10T00:16:50.292Z,100210.63
2018-11-10T00:19:18.067Z,100211.78
2018-11-10T00:21:45.807Z,100211.47
2018-11-10T00:24:13.558Z,100211.99
2018-11-10T00:26:41.298Z,100205.04
2018-11-10T00:29:09.015Z,100208.03
2018-11-10T00:31:36.778Z,100205.02
2018-11-10T00:34:05.011Z,100198.50
2018-11-10T00:36:32.767Z,100199.12
2018-11-10T00:39:00.539Z,100199.30
2018-11-10T00:41:28.299Z,100196.04
2018-11-10T00:43:56.033Z,100193.64
2018-11-10T00:46:23.854Z,100187.42
2018-11-10T00:48:51.590Z,100187.02
2018-11-10T00:51:19.374Z,100170.91
2018-11-10T00:53:47.126Z,100165.86
2018-11-10T00:56:14.879Z,100170.64
2018-11-10T00:58:42.630Z,100179.68
2018-11-10T01:01:10.355Z,100189.19
2018-11-10T01:03:38.195Z,100186.56
2018-11-10T01:06:05.951Z,100179.77
2018-11-10T01:08:33.683Z,100184.62
2018-11-10T01:11:01.397Z,100185.13
2018-11-10T01:13:29.203Z,100184.41
2018-11-10T01:15:56.929Z,100184.00
2018-11-10T01:18:24.651Z,100181.75
2018-11-10T01:20:52.394Z,100184.80
2018-11-10T01:23:20.123Z,100185.16
2018-11-10T01:25:47.867Z,100176.80
2018-11-10T01:28:15.610Z,100176.45
2018-11-10T01:30:43.347Z,100176.69
2018-11-10T01:33:11.088Z,100175.09
2018-11-10T01:35:38.826Z,100167.55
2018-11-10T01:38:06.614Z,100169.27
2018-11-10T01:40:34.351Z,100166.37
2018-11-10T01:43:02.103Z,100161.90
2018-11-10T01:45:29.846Z,100159.70
2018-11-10T01:47:57.594Z,100164.31
2018-11-10T01:50:25.310Z,100159.31
2018-11-10T01:52:53.026Z,100158.34
2018-11-10T01:55:20.786Z,100155.72
2018-11-10T01:57:48.521Z,100154.32
2018-11-10T02:00:17.441Z,100154.73
2018-11-10T02:02:45.913Z,100155.84
2018-11-10T02:05:14.070Z,100157.23
2018-11-10T02:07:41.801Z,100158.02
2018-11-10T02:10:10.443Z,100158.27
2018-11-10T02:12:38.236Z,100154.33
2018-11-10T02:15:08.233Z,100147.62
2018-11-10T02:17:35.964Z,100151.84
2018-11-10T02:20:04.499Z,100153.29
2018-11-10T02:22:32.249Z,100158.22
2018-11-10T02:25:00.070Z,100151.64
2018-11-10T02:27:27.857Z,100149.27
2018-11-10T02:29:55.641Z,100142.50
2018-11-10T02:32:23.387Z,100144.34
2018-11-10T02:34:51.849Z,100146.16
2018-11-10T02:37:19.591Z,100152.36
2018-11-10T02:39:47.325Z,100157.02
2018-11-10T02:42:15.074Z,100160.98
2018-11-10T02:44:42.798Z,100151.52
2018-11-10T02:47:10.515Z,100152.23
2018-11-10T02:49:38.242Z,100153.91
2018-11-10T02:52:05.998Z,100157.50
2018-11-10T02:54:33.734Z,100158.38
2018-11-10T02:57:01.466Z,100160.98
2018-11-10T02:59:29.209Z,100154.95
2018-11-10T03:01:56.934Z,100160.34
2018-11-10T03:04:24.681Z,100157.09
2018-11-10T03:06:52.415Z,100155.97
2018-11-10T03:09:20.146Z,100161.03
2018-11-10T03:11:47.886Z,100156.59
2018-11-10T03:14:15.684Z,100161.20
2018-11-10T03:16:43.415Z,100159.03
2018-11-10T03:19:11.152Z,100149.50
2018-11-10T03:21:38.886Z,100146.84
2018-11-10T03:24:06.611Z,100150.03
2018-11-10T03:26:34.338Z,100143.72
2018-11-10T03:29:02.058Z,100150.81
2018-11-10T03:31:29.786Z,100141.70
2018-11-10T03:33:57.504Z,100137.08
2018-11-10T03:36:25.256Z,100143.35
2018-11-10T03:38:52.990Z,100150.52
2018-11-10T03:41:20.760Z,100147.77
2018-11-10T03:43:48.486Z,100149.36
2018-11-10T03:46:16.263Z,100147.81
2018-11-10T03:48:43.991Z,100155.84
2018-11-10T03:51:11.782Z,100160.47
2018-11-10T03:53:39.979Z,100153.95
2018-11-10T03:56:08.037Z,100160.92
2018-11-10T03:58:35.818Z,100154.69
2018-11-10T04:01:03.655Z,100155.72
2018-11-10T04:03:31.467Z,100158.67
2018-11-10T04:05:59.211Z,100158.98
2018-11-10T04:08:26.925Z,100153.33
2018-11-10T04:10:54.656Z,100157.66
2018-11-10T04:13:22.406Z,100164.08
2018-11-10T04:15:50.126Z,100164.23
2018-11-10T04:18:17.838Z,100162.08
2018-11-10T04:20:45.567Z,100172.85
2018-11-10T04:23:13.279Z,100166.73
2018-11-10T04:25:41.011Z,100165.13
2018-11-10T04:28:08.735Z,100168.28
2018-11-10T04:30:36.460Z,100171.58
2018-11-10T04:33:04.474Z,100168.64
2018-11-10T04:35:32.182Z,100173.09
2018-11-10T04:37:59.918Z,100168.67
2018-11-10T04:40:27.645Z,100172.05
2018-11-10T04:42:55.417Z,100174.51
2018-11-10T04:45:23.137Z,100176.13
2018-11-10T04:47:50.902Z,100179.16
2018-11-10T04:50:18.880Z,100178.75
2018-11-10T04:52:46.600Z,100183.04
2018-11-10T04:55:14.327Z,100184.77
2018-11-10T04:57:42.054Z,100178.53
2018-11-10T05:00:12.463Z,100183.38
2018-11-10T05:02:40.406Z,100184.21
2018-11-10T05:05:08.266Z,100184.89
2018-11-10T05:07:36.090Z,100176.27
2018-11-10T05:10:03.946Z,100177.23
2018-11-10T05:12:31.677Z,100181.52
2018-11-10T05:14:59.419Z,100180.06
2018-11-10T05:17:27.142Z,100187.63
2018-11-10T05:19:54.868Z,100186.80
2018-11-10T05:22:22.918Z,100188.28
2018-11-10T05:24:50.654Z,100186.19
2018-11-10T05:27:18.401Z,100192.41
2018-11-10T05:29:46.135Z,100190.50
2018-11-10T05:32:13.878Z,100195.92
2018-11-10T05:34:41.604Z,100198.48
2018-11-10T05:37:09.343Z,100191.58
2018-11-10T05:39:37.058Z,100194.09
2018-11-10T05:42:04.806Z,100193.68
2018-11-10T05:44:32.524Z,100199.97
2018-11-10T05:47:00.246Z,100201.84
2018-11-10T05:49:27.962Z,100203.73
2018-11-10T05:51:55.698Z,100203.73
2018-11-10T05:54:23.402Z,100204.25
2018-11-10T05:56:51.158Z,100208.64
2018-11-10T05:59:18.930Z,100209.73
2018-11-10T06:01:46.692Z,100210.23
2018-11-10T06:04:14.399Z,100219.08
2018-11-10T06:06:42.120Z,100212.41
2018-11-10T06:09:10.966Z,100215.25
2018-11-10T06:11:39.982Z,100217.70
2018-11-10T06:14:07.893Z,100218.22
2018-11-10T06:16:35.856Z,100214.97
2018-11-10T06:19:03.599Z,100225.26
2018-11-10T06:21:31.330Z,100223.91
2018-11-10T06:23:59.059Z,100220.65
2018-11-10T06:26:27.319Z,100225.67
2018-11-10T06:28:55.055Z,100225.98
2018-11-10T06:31:22.771Z,100229.76
2018-11-10T06:33:50.554Z,100235.05
2018-11-10T06:36:18.481Z,100226.92
2018-11-10T06:38:46.234Z,100225.28
2018-11-10T06:41:13.975Z,100230.77
2018-11-10T06:43:41.724Z,100232.95
2018-11-10T06:46:09.443Z,100232.66
2018-11-10T06:48:37.194Z,100237.39
2018-11-10T06:51:05.015Z,100229.38
2018-11-10T06:53:32.743Z,100224.08
2018-11-10T06:56:00.447Z,100228.69
2018-11-10T06:58:28.178Z,100225.53
2018-11-10T07:00:55.944Z,100229.29
2018-11-10T07:03:23.715Z,100228.34
2018-11-10T07:05:51.454Z,100231.56
2018-11-10T07:08:19.910Z,100228.02
2018-11-10T07:10:48.081Z,100231.24
2018-11-10T07:13:15.836Z,100222.61
2018-11-10T07:15:43.610Z,100223.48
2018-11-10T07:18:11.446Z,100220.83
2018-11-10T07:20:39.105Z,100221.65
2018-11-10T07:23:06.843Z,100220.33
2018-11-10T07:25:34.607Z,100217.50
2018-11-10T07:28:02.364Z,100216.84
2018-11-10T07:30:30.099Z,100214.33
2018-11-10T07:32:57.843Z,100216.51
2018-11-10T07:35:25.587Z,100215.19
2018-11-10T07:37:53.319Z,100214.48
2018-11-10T07:40:21.081Z,100205.20
2018-11-10T07:42:48.886Z,100208.89
2018-11-10T07:45:16.621Z,100217.06
2018-11-10T07:47:45.277Z,100213.63
2018-11-10T07:50:13.028Z,100218.03
2018-11-10T07:52:41.403Z,100217.15
2018-11-10T07:55:10.630Z,100213.97
2018-11-10T07:57:38.377Z,100213.97
2018-11-10T08:00:08.926Z,100221.70
2018-11-10T08:02:36.662Z,100211.85
2018-11-10T08:05:04.923Z,100218.62
2018-11-10T08:07:32.716Z,100214.41
2018-11-10T08:10:00.518Z,100212.17
2018-11-10T08:12:28.229Z,100212.52
2018-11-10T08:14:55.966Z,100214.57
2018-11-10T08:17:23.692Z,100214.78
2018-11-10T08:19:51.442Z,100213.97
2018-11-10T08:22:19.212Z,100210.02
2018-11-10T08:24:46.940Z,100217.91
2018-11-10T08:27:14.679Z,100224.12
2018-11-10T08:29:42.398Z,100220.23
2018-11-10T08:32:10.123Z,100219.57
2018-11-10T08:34:37.866Z,100208.98
2018-11-10T08:37:05.682Z,100212.26
2018-11-10T08:39:33.439Z,100215.83
2018-11-10T08:42:01.203Z,100219.24
2018-11-10T08:44:28.930Z,100213.09
2018-11-10T08:46:56.698Z,100217.58
2018-11-10T08:49:24.517Z,100214.22
2018-11-10T08:51:53.171Z,100217.33
2018-11-10T08:54:20.947Z,100220.07
2018-11-10T08:56:48.741Z,100215.47
2018-11-10T08:59:16.549Z,100216.73
2018-11-10T09:01:44.290Z,100222.97
2018-11-10T09:04:12.027Z,100218.39
2018-11-10T09:06:39.783Z,100218.08
2018-11-10T09:09:09.022Z,100216.11
2018-11-10T09:11:36.944Z,100208.93
2018-11-10T09:14:04.925Z,100212.26
2018-11-10T09:16:32.671Z,100209.48
2018-11-10T09:19:00.415Z,100212.41
2018-11-10T09:21:28.259Z,100206.40
2018-11-10T09:23:55.928Z,100207.53
2018-11-10T09:26:24.198Z,100202.20
2018-11-10T09:28:51.953Z,100196.03
2018-11-10T09:31:19.695Z,100197.12
2018-11-10T09:33:47.425Z,100197.61
2018-11-10T09:36:15.168Z,100188.25
2018-11-10T09:38:42.955Z,100184.70
2018-11-10T09:41:10.722Z,100184.97
2018-11-10T09:43:38.447Z,100175.41
2018-11-10T09:46:06.402Z,100177.91
2018-11-10T09:48:34.186Z,100173.58
2018-11-10T09:51:02.006Z,100170.16
2018-11-10T09:53:29.769Z,100168.28
2018-11-10T09:55:57.534Z,100171.02
2018-11-10T09:58:25.350Z,100170.84
2018-11-10T10:00:53.148Z,100161.30
2018-11-10T10:03:20.891Z,100161.84
2018-11-10T10:05:48.643Z,100157.88
2018-11-10T10:08:16.397Z,100159.76
2018-11-10T10:10:44.158Z,100152.95
2018-11-10T10:13:11.919Z,100151.70
2018-11-10T10:15:39.654Z,100148.87
2018-11-10T10:18:07.417Z,100148.51
2018-11-10T10:20:35.183Z,100154.01
2018-11-10T10:23:02.971Z,100143.50
2018-11-10T10:25:30.710Z,100146.55
2018-11-10T10:27:58.463Z,100140.31
2018-11-10T10:30:26.499Z,100139.18
2018-11-10T10:32:54.266Z,100127.81
2018-11-10T10:35:22.162Z,100124.87
2018-11-10T10:37:50.634Z,100125.33
2018-11-10T10:40:18.568Z,100118.16
2018-11-10T10:42:46.892Z,100118.64
2018-11-10T10:45:16.114Z,100111.55
2018-11-10T10:47:44.238Z,100120.36
2018-11-10T10:50:15.231Z,100109.25
2018-11-10T10:52:43.009Z,100111.59
2018-11-10T10:55:12.866Z,100113.08
2018-11-10T10:57:40.926Z,100105.34
2018-11-10T11:00:15.879Z,100107.60
2018-11-10T11:02:49.123Z,100101.36
2018-11-10T11:05:23.172Z,100100.41
2018-11-10T11:07:51.049Z,100098.61
2018-11-10T11:10:18.922Z,100099.57
2018-11-10T11:12:46.641Z,100092.53
2018-11-10T11:15:14.415Z,100091.28
2018-11-10T11:17:42.132Z,100084.17
2018-11-10T11:20:10.159Z,100083.88
2018-11-10T11:22:37.899Z,100082.34
2018-11-10T11:25:05.832Z,100079.87
2018-11-10T11:27:33.597Z,100080.97
2018-11-10T11:30:01.822Z,100075.91
2018-11-10T11:32:29.558Z,100074.32
2018-11-10T11:34:57.308Z,100071.61
2018-11-10T11:37:25.052Z,100069.92
2018-11-10T11:39:52.827Z,100071.54
2018-11-10T11:42:21.862Z,100072.42
2018-11-10T11:44:49.610Z,100079.45
2018-11-10T11:47:17.382Z,100075.09
2018-11-10T11:49:45.182Z,100071.33
2018-11-10T11:52:12.897Z,100068.52
2018-11-10T11:54:40.706Z,100062.19
2018-11-10T11:57:08.443Z,100062.07
2018-11-10T11:59:36.174Z,100067.01
2018-11-10T12:02:04.048Z,100059.59
2018-11-10T12:04:31.828Z,100054.30
2018-11-10T12:06:59.594Z,100056.22
2018-11-10T12:09:27.410Z,100056.70
2018-11-10T12:11:55.195Z,100055.84
2018-11-10T12:14:22.910Z,100049.73
2018-11-10T12:16:50.736Z,100053.30
2018-11-10T12:19:18.496Z,100046.20
2018-11-10T12:21:46.284Z,100049.52
2018-11-10T12:24:14.016Z,100043.61
2018-11-10T12:26:41.776Z,100044.91
2018-11-10T12:29:09.591Z,100043.95
2018-11-10T12:31:37.391Z,100047.92
2018-11-10T12:34:05.622Z,100039.92
2018-11-10T12:36:33.418Z,100039.06
2018-11-10T12:39:01.168Z,100041.70
2018-11-10T12:41:28.907Z,100041.80
2018-11-10T12:43:56.674Z,100042.56
2018-11-10T12:46:24.424Z,100041.02
2018-11-10T12:48:52.162Z,100040.78
2018-11-10T12:51:19.913Z,100043.59
2018-11-10T12:53:47.666Z,100039.06
2018-11-10T12:56:15.403Z,100042.39
2018-11-10T12:58:43.143Z,100039.69
2018-11-10T13:01:10.911Z,100040.84
2018-11-10T13:03:38.633Z,100046.23
2018-11-10T13:06:06.500Z,100038.30
2018-11-10T13:08:34.271Z,100043.02
2018-11-10T13:11:02.096Z,100041.13
2018-11-10T13:13:29.811Z,100033.03
2018-11-10T13:15:57.828Z,100029.20
2018-11-10T13:18:25.588Z,100026.55
2018-11-10T13:20:53.375Z,100031.80
2018-11-10T13:23:21.081Z,100026.13
2018-11-10T13:25:48.840Z,100027.66
2018-11-10T13:28:16.606Z,100019.84
2018-11-10T13:30:44.393Z,100025.12
2018-11-10T13:33:12.126Z,100023.05
2018-11-10T13:35:39.915Z,100022.88
2018-11-10T13:38:07.660Z,100025.70
2018-11-10T13:40:35.417Z,100021.83
2018-11-10T13:43:03.199Z,100029.94
2018-11-10T13:45:30.951Z,100033.44
2018-11-10T13:47:58.691Z,100028.14
2018-11-10T13:50:26.453Z,100034.36
2018-11-10T13:52:54.393Z,100032.94
2018-11-10T13:55:22.013Z,100029.92
2018-11-10T13:57:49.777Z,100030.20
2018-11-10T14:00:18.344Z,100028.59
2018-11-10T14:02:46.125Z,100031.30
2018-11-10T14:05:14.411Z,100026.80
2018-11-10T14:07:42.222Z,100019.62
2018-11-10T14:10:11.757Z,100028.58
2018-11-10T14:12:40.280Z,100026.84
2018-11-10T14:15:08.113Z,100024.23
2018-11-10T14:17:35.837Z,100023.73
2018-11-10T14:20:04.431Z,100021.19
2018-11-10T14:22:32.187Z,100016.69
2018-11-10T14:24:59.915Z,100017.95
2018-11-10T14:27:27.675Z,100018.54
2018-11-10T14:29:55.477Z,100019.96
2018-11-10T14:32:23.314Z,100016.39
2018-11-10T14:34:51.085Z,100012.89
2018-11-10T14:37:18.798Z,100011.14
2018-11-10T14:39:46.526Z,100010.68
2018-11-10T14:42:14.383Z,100008.37
2018-11-10T14:44:42.158Z,100009.03
2018-11-10T14:47:09.902Z,100009.86
2018-11-10T14:49:37.634Z,100008.30
2018-11-10T14:52:05.706Z,100010.84
2018-11-10T14:54:33.479Z,100015.17
2018-11-10T14:57:01.239Z,100017.35
2018-11-10T14:59:28.970Z,100020.37
2018-11-10T15:01:56.725Z,100016.11
2018-11-10T15:04:24.591Z,100018.85
2018-11-10T15:06:52.331Z,100019.78
2018-11-10T15:09:20.073Z,100018.83
2018-11-10T15:11:47.957Z,100016.28
2018-11-10T15:14:15.591Z,100022.44
2018-11-10T15:16:43.322Z,100022.38
2018-11-10T15:19:11.114Z,100024.00
2018-11-10T15:27:06.115Z,100026.24
2018-11-10T15:29:33.873Z,100025.17
2018-11-10T15:32:01.627Z,100024.31
2018-11-10T15:34:29.354Z,100019.40
2018-11-10T15:36:57.212Z,100028.27
2018-11-10T15:39:24.951Z,100025.94
2018-11-10T15:41:52.683Z,100028.13
2018-11-10T15:44:20.395Z,100023.17
2018-11-10T15:46:48.132Z,100030.22
2018-11-10T15:49:15.890Z,100023.87
2018-11-10T15:51:43.683Z,100028.14
2018-11-10T15:54:11.411Z,100032.70
2018-11-10T15:56:39.215Z,100025.21
2018-11-10T15:59:07.991Z,100032.19
2018-11-10T16:01:35.730Z,100028.78
2018-11-10T16:04:03.486Z,100032.34
2018-11-10T16:06:31.202Z,100034.35
2018-11-10T16:08:58.977Z,100036.62
2018-11-10T16:11:26.702Z,100036.83
2018-11-10T16:13:54.426Z,100037.39
2018-11-10T16:16:22.190Z,100041.13
2018-11-10T16:18:49.922Z,100050.78
2018-11-10T16:21:17.638Z,100049.25
2018-11-10T16:23:45.376Z,100053.66
2018-11-10T16:26:13.094Z,100062.91
2018-11-10T16:28:40.857Z,100057.64
2018-11-10T16:31:08.710Z,100065.58
2018-11-10T16:33:36.531Z,100059.39
2018-11-10T16:36:04.329Z,100057.02
2018-11-10T16:38:32.062Z,100064.28
2018-11-10T16:40:59.815Z,100066.89
2018-11-10T16:43:27.558Z,100061.22
2018-11-10T16:45:55.287Z,100057.90
2018-11-10T16:48:23.022Z,100053.20
2018-11-10T16:50:50.909Z,100056.90
2018-11-10T16:53:18.666Z,100057.76
2018-11-10T16:55:49.714Z,100066.30
2018-11-10T16:58:17.535Z,100067.33
2018-11-10T17:00:45.289Z,100071.25
2018-11-10T17:03:13.023Z,100069.43
2018-11-10T17:05:40.739Z,100075.38
2018-11-10T17:08:08.475Z,100070.52
2018-11-10T17:10:36.195Z,100076.11
2018-11-10T17:13:04.635Z,100084.00
2018-11-10T17:15:32.422Z,100084.24
2018-11-10T17:18:00.150Z,100081.37
2018-11-10T17:20:27.896Z,100081.92
2018-11-10T17:22:55.625Z,100086.61
2018-11-10T17:25:23.355Z,100085.14
2018-11-10T17:27:51.087Z,100084.31
2018-11-10T17:30:20.218Z,100086.02
2018-11-10T17:32:47.898Z,100093.89
2018-11-10T17:35:15.711Z,100094.99
2018-11-10T17:37:43.605Z,100099.02
2018-11-10T17:40:12.223Z,100101.34
2018-11-10T17:42:39.886Z,100107.27
2018-11-10T17:45:09.743Z,100104.06
2018-11-10T17:47:38.515Z,100104.30
2018-11-10T17:50:08.097Z,100102.22
2018-11-10T17:52:35.959Z,100101.89
2018-11-10T17:55:03.747Z,100098.67
2018-11-10T17:57:31.568Z,100096.29
2018-11-10T17:59:59.270Z,100100.58
2018-11-10T18:02:27.018Z,100102.63
2018-11-10T18:04:54.789Z,100107.48
2018-11-10T18:07:22.549Z,100104.23
2018-11-10T18:09:50.326Z,100109.66
2018-11-10T18:12:18.079Z,100104.41
2018-11-10T18:14:45.806Z,100101.85
2018-11-10T18:17:13.548Z,100104.86
2018-11-10T18:19:41.305Z,100101.98
2018-11-10T18:22:09.179Z,100101.52
2018-11-10T18:24:36.930Z,100106.70
2018-11-10T18:27:04.762Z,100106.41
2018-11-10T18:29:32.502Z,100101.90
2018-11-10T18:32:00.250Z,100106.98
2018-11-10T18:34:28.031Z,100106.36
2018-11-10T18:36:55.782Z,100115.65
2018-11-10T18:39:27.708Z,100108.20
2018-11-10T18:41:55.498Z,100116.27
2018-11-10T18:44:23.279Z,100114.20
2018-11-10T18:46:51.135Z,100115.16
2018-11-10T18:49:18.862Z,100118.75
2018-11-10T18:51:46.638Z,100111.75
2018-11-10T18:54:14.546Z,100113.92
2018-11-10T18:56:42.290Z,100110.81
2018-11-10T18:59:10.067Z,100113.51
2018-11-10T19:01:37.883Z,100122.18
2018-11-10T19:04:05.852Z,100122.73
2018-11-10T19:06:33.719Z,100123.41
2018-11-10T19:09:01.471Z,100125.34
2018-11-10T19:11:29.291Z,100126.78
2018-11-10T19:13:57.035Z,100128.81
2018-11-10T19:16:24.802Z,100127.09
2018-11-10T19:18:52.604Z,100138.47
2018-11-10T19:21:20.406Z,100139.67
2018-11-10T19:23:48.363Z,100136.21
2018-11-10T19:26:19.290Z,100141.29
2018-11-10T19:28:51.776Z,100142.42
2018-11-10T19:31:20.446Z,100139.80
2018-11-10T19:33:48.221Z,100140.59
2018-11-10T19:36:15.982Z,100143.02
2018-11-10T19:38:43.770Z,100148.53
2018-11-10T19:41:11.511Z,100149.58
2018-11-10T19:43:39.283Z,100152.23
2018-11-10T19:46:07.082Z,100154.25
2018-11-10T19:48:34.843Z,100156.34
2018-11-10T19:51:07.321Z,100158.33
2018-11-10T19:53:34.894Z,100160.64
2018-11-10T19:56:02.645Z,100162.80
2018-11-10T19:58:30.385Z,100164.73
2018-11-10T20:00:58.140Z,100163.36
2018-11-10T20:03:25.883Z,100162.97
2018-11-10T20:05:53.647Z,100169.45
2018-11-10T20:08:21.391Z,100162.61
2018-11-10T20:10:55.492Z,100163.45
2018-11-10T20:13:27.028Z,100163.31
2018-11-10T20:15:54.846Z,100159.09
2018-11-10T20:18:22.607Z,100166.45
2018-11-10T20:20:50.326Z,100165.50
2018-11-10T20:23:18.065Z,100166.38
2018-11-10T20:25:45.807Z,100172.59
2018-11-10T20:28:13.683Z,100165.23
2018-11-10T20:30:41.468Z,100155.87
2018-11-10T20:33:09.199Z,100157.77
2018-11-10T20:35:36.929Z,100162.45
2018-11-10T20:38:04.819Z,100169.45
2018-11-10T20:40:32.566Z,100169.97
2018-11-10T20:43:00.311Z,100164.47
2018-11-10T20:45:28.035Z,100160.11
2018-11-10T20:47:55.784Z,100159.92
2018-11-10T20:50:23.528Z,100160.70
2018-11-10T20:52:51.286Z,100160.01
2018-11-10T20:55:19.034Z,100157.70
2018-11-10T20:57:46.763Z,100161.98
2018-11-10T21:00:15.982Z,100164.98
2018-11-10T21:02:44.023Z,100164.25
2018-11-10T21:05:12.352Z,100161.55
2018-11-10T21:07:40.122Z,100164.22
2018-11-10T21:10:10.750Z,100163.99
2018-11-10T21:12:38.544Z,100168.05
2018-11-10T21:15:06.975Z,100169.45
2018-11-10T21:17:34.796Z,100174.48
2018-11-10T21:20:02.845Z,100176.02
2018-11-10T21:22:30.530Z,100174.00
2018-11-10T21:24:58.267Z,100175.59
2018-11-10T21:27:25.994Z,100183.88
2018-11-10T21:29:53.746Z,100182.16
2018-11-10T21:32:21.471Z,100185.02
2018-11-10T21:34:49.212Z,100180.89
2018-11-10T21:37:16.944Z,100178.37
2018-11-10T21:39:44.666Z,100182.95
2018-11-10T21:42:12.399Z,100187.40
2018-11-10T21:44:40.114Z,100187.08
2018-11-10T21:47:07.838Z,100193.95
2018-11-10T21:49:35.615Z,100183.56
2018-11-10T21:52:03.363Z,100184.48
2018-11-10T21:54:31.092Z,100192.64
2018-11-10T21:56:58.873Z,100195.33
2018-11-10T21:59:26.606Z,100199.51
2018-11-10T22:01:54.326Z,100199.38
2018-11-10T22:04:22.049Z,100195.17
2018-11-10T22:06:49.863Z,100193.22
2018-11-10T22:09:17.773Z,100193.94
2018-11-10T22:11:45.401Z,100192.73
2018-11-10T22:14:13.161Z,100193.06
2018-11-10T22:16:40.891Z,100196.72
2018-11-10T22:19:08.633Z,100196.01
2018-11-10T22:21:36.386Z,100196.89
2018-11-10T22:24:04.221Z,100198.03
2018-11-10T22:26:31.968Z,100198.91
2018-11-10T22:28:59.705Z,100203.52
2018-11-10T22:31:27.486Z,100212.97
2018-11-10T22:33:55.252Z,100204.68
2018-11-10T22:36:23.037Z,100205.48
2018-11-10T22:38:50.774Z,100213.41
2018-11-10T22:41:18.521Z,100212.00
2018-11-10T22:43:46.246Z,100213.98
2018-11-10T22:46:14.333Z,100215.42
2018-11-10T22:48:42.143Z,100211.73
2018-11-10T22:51:09.882Z,100210.87
2018-11-10T22:53:37.807Z,100208.55
2018-11-10T22:56:05.733Z,100198.93
2018-11-10T22:58:33.459Z,100206.23
2018-11-10T23:01:06.234Z,100210.16
2018-11-10T23:03:34.760Z,100212.44
2018-11-10T23:06:02.549Z,100212.47
2018-11-10T23:08:30.342Z,100215.23
2018-11-10T23:10:58.094Z,100222.59
2018-11-10T23:13:25.809Z,100220.83
2018-11-10T23:15:53.558Z,100225.27
2018-11-10T23:18:21.302Z,100228.05
2018-11-10T23:20:49.018Z,100226.08
2018-11-10T23:23:16.775Z,100228.22
2018-11-10T23:25:44.518Z,100220.68
2018-11-10T23:28:12.242Z,100227.02
2018-11-10T23:30:39.979Z,100225.84
2018-11-10T23:33:07.709Z,100232.33
2018-11-10T23:35:35.435Z,100235.15
2018-11-10T23:38:03.167Z,100233.19
2018-11-10T23:40:30.923Z,100236.59
2018-11-10T23:42:58.654Z,100240.92
2018-11-10T23:45:26.435Z,100233.58
2018-11-10T23:47:54.171Z,100238.11
2018-11-10T23:50:21.908Z,100239.77
2018-11-10T23:52:49.637Z,100238.03
2018-11-10T23:55:17.490Z,100247.41
2018-11-10T23:57:45.307Z,100240.59
